sensor_id;sensor_type;location;lat;lon;timestamp;pressure;altitude;pressure_sealevel;temperature;humidity
44351;BME280;62766;62.622;17.912;2022-12-07T00:01:06;100401.16;;;-6.13;61.28
44351;BME280;62766;62.622;17.912;2022-12-07T00:03:36;100401.23;;;-6.12;61.35
44351;BME280;62766;62.622;17.912;2022-12-07T00:06:07;100399.44;;;-6.16;61.47
44351;BME280;62766;62.622;17.912;2022-12-07T00:08:36;100399.33;;;-6.16;61.62
44351;BME280;62766;62.622;17.912;2022-12-07T00:11:07;100397.96;;;-6.07;61.55
44351;BME280;62766;62.622;17.912;2022-12-07T00:13:36;100399.81;;;-6.11;61.52
44351;BME280;62766;62.622;17.912;2022-12-07T00:16:09;100402.15;;;-6.05;61.52
44351;BME280;62766;62.622;17.912;2022-12-07T00:18:38;100398.79;;;-6.02;61.43
44351;BME280;62766;62.622;17.912;2022-12-07T00:21:10;100399.86;;;-5.87;61.18
44351;BME280;62766;62.622;17.912;2022-12-07T00:23:42;100394.87;;;-5.97;61.03
44351;BME280;62766;62.622;17.912;2022-12-07T00:26:14;100392.44;;;-5.86;60.96
44351;BME280;62766;62.622;17.912;2022-12-07T00:28:45;100388.97;;;-5.89;60.89
44351;BME280;62766;62.622;17.912;2022-12-07T00:31:17;100385.79;;;-5.77;60.91
44351;BME280;62766;62.622;17.912;2022-12-07T00:33:47;100381.94;;;-5.85;60.98
44351;BME280;62766;62.622;17.912;2022-12-07T00:36:18;100382.06;;;-6.04;61.36
44351;BME280;62766;62.622;17.912;2022-12-07T00:38:46;100381.32;;;-6.09;61.50
44351;BME280;62766;62.622;17.912;2022-12-07T00:41:17;100388.17;;;-6.11;61.81
44351;BME280;62766;62.622;17.912;2022-12-07T00:43:47;100385.57;;;-6.12;61.91
44351;BME280;62766;62.622;17.912;2022-12-07T00:46:16;100385.09;;;-6.25;62.05
44351;BME280;62766;62.622;17.912;2022-12-07T00:48:47;100384.58;;;-6.16;62.14
44351;BME280;62766;62.622;17.912;2022-12-07T00:51:19;100385.43;;;-6.28;62.32
44351;BME280;62766;62.622;17.912;2022-12-07T00:53:49;100385.18;;;-6.38;62.57
44351;BME280;62766;62.622;17.912;2022-12-07T00:56:20;100384.72;;;-6.35;62.64
44351;BME280;62766;62.622;17.912;2022-12-07T00:58:51;100382.69;;;-6.28;62.70
44351;BME280;62766;62.622;17.912;2022-12-07T01:01:20;100383.43;;;-6.32;62.63
44351;BME280;62766;62.622;17.912;2022-12-07T01:03:49;100387.24;;;-6.32;62.75
44351;BME280;62766;62.622;17.912;2022-12-07T01:06:19;100386.59;;;-6.28;62.80
44351;BME280;62766;62.622;17.912;2022-12-07T01:08:48;100387.04;;;-6.22;62.81
44351;BME280;62766;62.622;17.912;2022-12-07T01:11:19;100391.41;;;-6.28;62.67
44351;BME280;62766;62.622;17.912;2022-12-07T01:13:50;100385.82;;;-6.32;62.62
44351;BME280;62766;62.622;17.912;2022-12-07T01:16:20;100382.73;;;-6.14;62.33
44351;BME280;62766;62.622;17.912;2022-12-07T01:18:51;100383.99;;;-6.06;62.26
44351;BME280;62766;62.622;17.912;2022-12-07T01:21:22;100392.37;;;-6.13;62.14
44351;BME280;62766;62.622;17.912;2022-12-07T01:23:50;100395.17;;;-6.01;61.85
44351;BME280;62766;62.622;17.912;2022-12-07T01:26:22;100390.98;;;-5.93;61.53
44351;BME280;62766;62.622;17.912;2022-12-07T01:28:51;100391.25;;;-5.94;61.46
44351;BME280;62766;62.622;17.912;2022-12-07T01:31:21;100392.67;;;-6.03;61.33
44351;BME280;62766;62.622;17.912;2022-12-07T01:33:53;100388.27;;;-5.83;61.16
44351;BME280;62766;62.622;17.912;2022-12-07T01:36:24;100386.05;;;-5.87;60.85
44351;BME280;62766;62.622;17.912;2022-12-07T01:38:55;100385.32;;;-5.83;60.79
44351;BME280;62766;62.622;17.912;2022-12-07T01:41:27;100386.91;;;-5.87;60.68
44351;BME280;62766;62.622;17.912;2022-12-07T01:44:16;100381.76;;;-5.85;60.74
44351;BME280;62766;62.622;17.912;2022-12-07T01:46:48;100381.61;;;-5.75;60.55
44351;BME280;62766;62.622;17.912;2022-12-07T01:49:23;100379.19;;;-5.78;60.27
44351;BME280;62766;62.622;17.912;2022-12-07T01:51:58;100374.11;;;-5.61;60.05
44351;BME280;62766;62.622;17.912;2022-12-07T01:54:30;100364.07;;;-5.69;59.84
44351;BME280;62766;62.622;17.912;2022-12-07T01:57:01;100362.76;;;-5.84;59.95
44351;BME280;62766;62.622;17.912;2022-12-07T01:59:29;100361.81;;;-5.83;60.02
44351;BME280;62766;62.622;17.912;2022-12-07T02:01:57;100365.30;;;-5.79;60.06
44351;BME280;62766;62.622;17.912;2022-12-07T02:04:26;100363.29;;;-5.77;60.08
44351;BME280;62766;62.622;17.912;2022-12-07T02:06:55;100367.69;;;-5.76;60.20
44351;BME280;62766;62.622;17.912;2022-12-07T02:09:25;100367.51;;;-5.79;60.00
44351;BME280;62766;62.622;17.912;2022-12-07T02:11:54;100370.79;;;-5.78;59.94
44351;BME280;62766;62.622;17.912;2022-12-07T02:14:24;100375.94;;;-5.72;59.71
44351;BME280;62766;62.622;17.912;2022-12-07T02:17:03;100376.58;;;-5.66;59.58
44351;BME280;62766;62.622;17.912;2022-12-07T02:20:01;100376.25;;;-5.61;59.53
44351;BME280;62766;62.622;17.912;2022-12-07T02:22:48;100377.78;;;-5.71;59.38
44351;BME280;62766;62.622;17.912;2022-12-07T02:25:32;100377.10;;;-5.64;59.43
44351;BME280;62766;62.622;17.912;2022-12-07T02:28:06;100374.39;;;-5.86;59.67
44351;BME280;62766;62.622;17.912;2022-12-07T02:30:40;100370.44;;;-5.94;59.51
44351;BME280;62766;62.622;17.912;2022-12-07T02:33:14;100370.62;;;-5.90;59.23
44351;BME280;62766;62.622;17.912;2022-12-07T02:35:48;100372.81;;;-5.77;59.26
44351;BME280;62766;62.622;17.912;2022-12-07T02:38:23;100376.58;;;-5.90;59.15
44351;BME280;62766;62.622;17.912;2022-12-07T02:40:56;100381.32;;;-5.97;58.93
44351;BME280;62766;62.622;17.912;2022-12-07T02:43:28;100379.05;;;-6.00;58.92
44351;BME280;62766;62.622;17.912;2022-12-07T02:46:01;100376.68;;;-5.99;58.89
44351;BME280;62766;62.622;17.912;2022-12-07T02:48:32;100379.32;;;-6.04;58.75
44351;BME280;62766;62.622;17.912;2022-12-07T02:51:02;100376.87;;;-5.99;58.59
44351;BME280;62766;62.622;17.912;2022-12-07T02:53:32;100373.32;;;-6.02;58.81
44351;BME280;62766;62.622;17.912;2022-12-07T02:56:05;100370.23;;;-6.07;59.16
44351;BME280;62766;62.622;17.912;2022-12-07T02:58:42;100365.45;;;-6.22;59.75
44351;BME280;62766;62.622;17.912;2022-12-07T03:01:19;100361.72;;;-6.26;60.22
44351;BME280;62766;62.622;17.912;2022-12-07T03:04:00;100360.51;;;-6.44;60.68
44351;BME280;62766;62.622;17.912;2022-12-07T03:06:38;100356.64;;;-6.37;61.07
44351;BME280;62766;62.622;17.912;2022-12-07T03:09:15;100356.70;;;-6.39;61.37
44351;BME280;62766;62.622;17.912;2022-12-07T03:11:49;100356.71;;;-6.60;61.46
44351;BME280;62766;62.622;17.912;2022-12-07T03:14:23;100353.01;;;-6.42;61.40
44351;BME280;62766;62.622;17.912;2022-12-07T03:16:57;100346.77;;;-6.36;61.48
44351;BME280;62766;62.622;17.912;2022-12-07T03:19:29;100344.50;;;-6.31;61.35
44351;BME280;62766;62.622;17.912;2022-12-07T03:22:02;100344.59;;;-6.33;61.19
44351;BME280;62766;62.622;17.912;2022-12-07T03:24:35;100347.16;;;-6.27;61.05
44351;BME280;62766;62.622;17.912;2022-12-07T03:27:09;100349.77;;;-6.14;60.87
44351;BME280;62766;62.622;17.912;2022-12-07T03:29:45;100351.04;;;-6.23;60.72
44351;BME280;62766;62.622;17.912;2022-12-07T03:32:21;100349.28;;;-6.09;60.33
44351;BME280;62766;62.622;17.912;2022-12-07T03:34:59;100340.98;;;-6.07;60.35
44351;BME280;62766;62.622;17.912;2022-12-07T03:37:33;100342.31;;;-5.93;60.14
44351;BME280;62766;62.622;17.912;2022-12-07T03:40:08;100343.91;;;-5.96;59.37
44351;BME280;62766;62.622;17.912;2022-12-07T03:42:39;100343.16;;;-5.87;58.98
44351;BME280;62766;62.622;17.912;2022-12-07T03:45:08;100344.38;;;-5.76;58.91
44351;BME280;62766;62.622;17.912;2022-12-07T03:47:44;100349.49;;;-5.72;58.46
44351;BME280;62766;62.622;17.912;2022-12-07T03:50:21;100343.24;;;-5.77;58.54
44351;BME280;62766;62.622;17.912;2022-12-07T03:52:55;100342.89;;;-5.62;58.64
44351;BME280;62766;62.622;17.912;2022-12-07T03:55:28;100337.24;;;-5.65;58.47
44351;BME280;62766;62.622;17.912;2022-12-07T03:58:01;100331.05;;;-5.69;57.93
44351;BME280;62766;62.622;17.912;2022-12-07T04:00:33;100332.55;;;-5.54;58.34
44351;BME280;62766;62.622;17.912;2022-12-07T04:03:01;100326.79;;;-5.64;58.40
44351;BME280;62766;62.622;17.912;2022-12-07T04:05:30;100322.78;;;-5.48;58.42
44351;BME280;62766;62.622;17.912;2022-12-07T04:07:58;100323.00;;;-5.66;58.41
44351;BME280;62766;62.622;17.912;2022-12-07T04:10:27;100322.29;;;-5.65;58.61
44351;BME280;62766;62.622;17.912;2022-12-07T04:12:56;100324.60;;;-5.67;58.45
44351;BME280;62766;62.622;17.912;2022-12-07T04:15:24;100326.97;;;-5.69;58.49
44351;BME280;62766;62.622;17.912;2022-12-07T04:17:53;100329.11;;;-5.64;58.28
44351;BME280;62766;62.622;17.912;2022-12-07T04:20:22;100326.60;;;-5.75;58.39
44351;BME280;62766;62.622;17.912;2022-12-07T04:22:50;100325.33;;;-5.62;58.35
44351;BME280;62766;62.622;17.912;2022-12-07T04:25:19;100320.76;;;-5.72;58.22
44351;BME280;62766;62.622;17.912;2022-12-07T04:27:47;100322.10;;;-5.84;58.29
44351;BME280;62766;62.622;17.912;2022-12-07T04:30:16;100319.99;;;-5.86;58.39
44351;BME280;62766;62.622;17.912;2022-12-07T04:32:46;100316.63;;;-5.78;58.67
44351;BME280;62766;62.622;17.912;2022-12-07T04:35:15;100310.43;;;-5.95;58.91
44351;BME280;62766;62.622;17.912;2022-12-07T04:37:45;100309.16;;;-5.99;59.12
44351;BME280;62766;62.622;17.912;2022-12-07T04:40:14;100309.62;;;-6.00;59.09
44351;BME280;62766;62.622;17.912;2022-12-07T04:42:43;100303.17;;;-5.92;59.07
44351;BME280;62766;62.622;17.912;2022-12-07T04:45:11;100308.48;;;-5.99;59.01
44351;BME280;62766;62.622;17.912;2022-12-07T04:47:40;100308.88;;;-5.92;58.93
44351;BME280;62766;62.622;17.912;2022-12-07T04:50:09;100304.97;;;-5.89;58.83
44351;BME280;62766;62.622;17.912;2022-12-07T04:52:39;100310.16;;;-5.92;58.90
44351;BME280;62766;62.622;17.912;2022-12-07T04:55:08;100309.66;;;-5.88;59.02
44351;BME280;62766;62.622;17.912;2022-12-07T04:57:36;100305.05;;;-5.92;59.02
44351;BME280;62766;62.622;17.912;2022-12-07T05:03:39;100306.84;;;-5.97;58.82
44351;BME280;62766;62.622;17.912;2022-12-07T05:06:08;100306.46;;;-5.92;58.39
44351;BME280;62766;62.622;17.912;2022-12-07T05:08:37;100308.20;;;-5.92;57.91
44351;BME280;62766;62.622;17.912;2022-12-07T05:11:07;100303.19;;;-5.66;57.71
44351;BME280;62766;62.622;17.912;2022-12-07T05:13:36;100302.13;;;-5.74;57.16
44351;BME280;62766;62.622;17.912;2022-12-07T05:16:05;100300.19;;;-5.65;56.94
44351;BME280;62766;62.622;17.912;2022-12-07T05:18:33;100307.06;;;-5.81;57.28
44351;BME280;62766;62.622;17.912;2022-12-07T05:21:02;100311.44;;;-5.70;58.01
44351;BME280;62766;62.622;17.912;2022-12-07T05:23:31;100310.22;;;-5.82;57.73
44351;BME280;62766;62.622;17.912;2022-12-07T05:25:59;100304.22;;;-5.91;57.90
44351;BME280;62766;62.622;17.912;2022-12-07T05:28:29;100301.61;;;-5.90;57.89
44351;BME280;62766;62.622;17.912;2022-12-07T05:30:57;100307.01;;;-5.86;57.90
44351;BME280;62766;62.622;17.912;2022-12-07T05:33:26;100305.32;;;-5.82;57.82
44351;BME280;62766;62.622;17.912;2022-12-07T05:35:55;100305.45;;;-5.67;57.75
44351;BME280;62766;62.622;17.912;2022-12-07T05:38:23;100304.25;;;-5.71;57.14
44351;BME280;62766;62.622;17.912;2022-12-07T05:40:52;100303.53;;;-5.75;57.19
44351;BME280;62766;62.622;17.912;2022-12-07T05:43:20;100305.70;;;-5.81;57.62
44351;BME280;62766;62.622;17.912;2022-12-07T05:45:49;100309.21;;;-5.83;57.64
44351;BME280;62766;62.622;17.912;2022-12-07T05:48:18;100307.75;;;-5.74;57.86
44351;BME280;62766;62.622;17.912;2022-12-07T05:50:47;100308.17;;;-5.81;57.64
44351;BME280;62766;62.622;17.912;2022-12-07T05:53:17;100302.87;;;-5.76;57.38
44351;BME280;62766;62.622;17.912;2022-12-07T05:55:45;100306.53;;;-5.77;57.43
44351;BME280;62766;62.622;17.912;2022-12-07T05:58:14;100304.15;;;-5.79;57.41
44351;BME280;62766;62.622;17.912;2022-12-07T06:00:43;100302.07;;;-5.98;57.46
44351;BME280;62766;62.622;17.912;2022-12-07T06:03:12;100301.67;;;-5.96;57.88
44351;BME280;62766;62.622;17.912;2022-12-07T06:05:42;100302.98;;;-6.01;58.00
44351;BME280;62766;62.622;17.912;2022-12-07T06:08:10;100304.46;;;-5.98;57.99
44351;BME280;62766;62.622;17.912;2022-12-07T06:10:39;100302.22;;;-5.98;57.85
44351;BME280;62766;62.622;17.912;2022-12-07T06:13:08;100301.84;;;-6.02;57.62
44351;BME280;62766;62.622;17.912;2022-12-07T06:15:36;100303.81;;;-5.88;57.69
44351;BME280;62766;62.622;17.912;2022-12-07T06:18:05;100302.93;;;-5.89;57.75
44351;BME280;62766;62.622;17.912;2022-12-07T06:20:33;100298.45;;;-6.03;57.80
44351;BME280;62766;62.622;17.912;2022-12-07T06:23:02;100302.20;;;-6.05;57.89
44351;BME280;62766;62.622;17.912;2022-12-07T06:25:31;100297.32;;;-5.97;57.92
44351;BME280;62766;62.622;17.912;2022-12-07T06:27:59;100295.23;;;-5.98;58.02
44351;BME280;62766;62.622;17.912;2022-12-07T06:30:28;100292.71;;;-5.89;58.19
44351;BME280;62766;62.622;17.912;2022-12-07T06:32:56;100297.28;;;-5.96;58.26
44351;BME280;62766;62.622;17.912;2022-12-07T06:35:25;100294.97;;;-5.90;58.12
44351;BME280;62766;62.622;17.912;2022-12-07T06:37:54;100297.55;;;-5.90;58.15
44351;BME280;62766;62.622;17.912;2022-12-07T06:40:22;100302.49;;;-5.89;57.90
44351;BME280;62766;62.622;17.912;2022-12-07T06:42:51;100302.48;;;-5.95;57.44
44351;BME280;62766;62.622;17.912;2022-12-07T06:45:20;100302.17;;;-5.87;57.56
44351;BME280;62766;62.622;17.912;2022-12-07T06:47:48;100302.27;;;-5.90;57.44
44351;BME280;62766;62.622;17.912;2022-12-07T06:50:17;100299.95;;;-5.82;57.46
44351;BME280;62766;62.622;17.912;2022-12-07T06:52:45;100300.13;;;-6.01;57.33
44351;BME280;62766;62.622;17.912;2022-12-07T06:55:14;100298.17;;;-5.96;57.11
44351;BME280;62766;62.622;17.912;2022-12-07T06:57:43;100296.87;;;-5.97;57.13
44351;BME280;62766;62.622;17.912;2022-12-07T07:00:13;100297.31;;;-5.97;57.31
44351;BME280;62766;62.622;17.912;2022-12-07T07:02:42;100298.93;;;-5.98;57.32
44351;BME280;62766;62.622;17.912;2022-12-07T07:05:11;100294.63;;;-5.85;57.20
44351;BME280;62766;62.622;17.912;2022-12-07T07:07:39;100293.05;;;-5.95;57.39
44351;BME280;62766;62.622;17.912;2022-12-07T07:10:08;100291.49;;;-6.02;57.77
44351;BME280;62766;62.622;17.912;2022-12-07T07:12:36;100292.03;;;-5.99;57.82
44351;BME280;62766;62.622;17.912;2022-12-07T07:15:06;100297.41;;;-5.94;57.67
44351;BME280;62766;62.622;17.912;2022-12-07T07:17:35;100301.27;;;-5.96;57.67
44351;BME280;62766;62.622;17.912;2022-12-07T07:20:05;100305.45;;;-5.90;57.45
44351;BME280;62766;62.622;17.912;2022-12-07T07:22:34;100305.73;;;-6.00;57.26
44351;BME280;62766;62.622;17.912;2022-12-07T07:25:03;100310.82;;;-5.99;57.19
44351;BME280;62766;62.622;17.912;2022-12-07T07:27:32;100308.64;;;-6.08;57.19
44351;BME280;62766;62.622;17.912;2022-12-07T07:30:00;100310.09;;;-6.01;56.87
44351;BME280;62766;62.622;17.912;2022-12-07T07:32:29;100309.80;;;-6.04;56.64
44351;BME280;62766;62.622;17.912;2022-12-07T07:34:57;100312.40;;;-6.10;56.69
44351;BME280;62766;62.622;17.912;2022-12-07T07:37:26;100309.20;;;-6.02;56.41
44351;BME280;62766;62.622;17.912;2022-12-07T07:39:55;100309.23;;;-6.00;56.30
44351;BME280;62766;62.622;17.912;2022-12-07T07:42:23;100309.14;;;-6.20;56.33
44351;BME280;62766;62.622;17.912;2022-12-07T07:44:52;100312.83;;;-6.33;56.72
44351;BME280;62766;62.622;17.912;2022-12-07T07:47:21;100309.81;;;-6.29;56.92
44351;BME280;62766;62.622;17.912;2022-12-07T07:49:49;100308.79;;;-6.25;57.02
44351;BME280;62766;62.622;17.912;2022-12-07T07:52:18;100312.72;;;-6.28;56.97
44351;BME280;62766;62.622;17.912;2022-12-07T07:54:46;100311.00;;;-6.32;57.18
44351;BME280;62766;62.622;17.912;2022-12-07T07:57:16;100308.44;;;-6.31;57.49
44351;BME280;62766;62.622;17.912;2022-12-07T07:59:44;100304.38;;;-6.44;57.72
44351;BME280;62766;62.622;17.912;2022-12-07T08:02:15;100301.24;;;-6.45;57.40
44351;BME280;62766;62.622;17.912;2022-12-07T08:04:44;100304.49;;;-6.43;57.21
44351;BME280;62766;62.622;17.912;2022-12-07T08:07:14;100303.81;;;-6.50;57.29
44351;BME280;62766;62.622;17.912;2022-12-07T08:09:43;100300.05;;;-6.62;57.34
44351;BME280;62766;62.622;17.912;2022-12-07T08:12:12;100300.93;;;-6.66;57.93
44351;BME280;62766;62.622;17.912;2022-12-07T08:14:41;100301.17;;;-6.63;57.89
44351;BME280;62766;62.622;17.912;2022-12-07T08:17:09;100300.83;;;-6.72;58.12
44351;BME280;62766;62.622;17.912;2022-12-07T08:19:38;100302.26;;;-6.70;58.18
44351;BME280;62766;62.622;17.912;2022-12-07T08:22:07;100298.84;;;-6.62;57.92
44351;BME280;62766;62.622;17.912;2022-12-07T08:24:36;100304.20;;;-6.45;57.39
44351;BME280;62766;62.622;17.912;2022-12-07T08:27:04;100299.06;;;-6.53;57.19
44351;BME280;62766;62.622;17.912;2022-12-07T08:29:32;100300.61;;;-6.40;57.12
44351;BME280;62766;62.622;17.912;2022-12-07T08:32:01;100294.90;;;-6.46;57.14
44351;BME280;62766;62.622;17.912;2022-12-07T08:34:30;100294.45;;;-6.48;57.15
44351;BME280;62766;62.622;17.912;2022-12-07T08:36:58;100288.19;;;-6.49;56.82
44351;BME280;62766;62.622;17.912;2022-12-07T08:39:27;100283.88;;;-6.31;56.69
44351;BME280;62766;62.622;17.912;2022-12-07T08:41:56;100283.51;;;-6.36;56.21
44351;BME280;62766;62.622;17.912;2022-12-07T08:44:25;100281.47;;;-6.33;56.12
44351;BME280;62766;62.622;17.912;2022-12-07T08:46:56;100284.56;;;-6.23;55.82
44351;BME280;62766;62.622;17.912;2022-12-07T08:49:31;100284.29;;;-6.28;55.58
44351;BME280;62766;62.622;17.912;2022-12-07T08:52:02;100286.26;;;-6.25;55.82
44351;BME280;62766;62.622;17.912;2022-12-07T08:54:33;100286.12;;;-6.44;55.91
44351;BME280;62766;62.622;17.912;2022-12-07T08:57:02;100283.21;;;-6.28;55.91
44351;BME280;62766;62.622;17.912;2022-12-07T08:59:33;100282.54;;;-6.19;55.69
44351;BME280;62766;62.622;17.912;2022-12-07T09:02:03;100284.26;;;-6.01;55.19
44351;BME280;62766;62.622;17.912;2022-12-07T09:04:31;100283.93;;;-6.13;55.28
44351;BME280;62766;62.622;17.912;2022-12-07T09:07:00;100278.73;;;-6.14;55.51
44351;BME280;62766;62.622;17.912;2022-12-07T09:09:28;100277.17;;;-6.11;55.08
44351;BME280;62766;62.622;17.912;2022-12-07T09:11:57;100280.23;;;-6.14;54.98
44351;BME280;62766;62.622;17.912;2022-12-07T09:14:26;100286.22;;;-6.02;54.62
44351;BME280;62766;62.622;17.912;2022-12-07T09:16:55;100288.52;;;-6.01;54.99
44351;BME280;62766;62.622;17.912;2022-12-07T09:19:23;100289.41;;;-6.02;55.17
44351;BME280;62766;62.622;17.912;2022-12-07T09:21:52;100285.78;;;-6.03;55.03
44351;BME280;62766;62.622;17.912;2022-12-07T09:24:20;100290.56;;;-5.92;54.95
44351;BME280;62766;62.622;17.912;2022-12-07T09:26:49;100286.86;;;-5.94;54.67
44351;BME280;62766;62.622;17.912;2022-12-07T09:29:18;100288.02;;;-5.93;54.58
44351;BME280;62766;62.622;17.912;2022-12-07T09:31:46;100283.16;;;-5.92;54.82
44351;BME280;62766;62.622;17.912;2022-12-07T09:34:15;100281.27;;;-5.75;54.65
44351;BME280;62766;62.622;17.912;2022-12-07T09:36:44;100282.17;;;-5.71;54.48
44351;BME280;62766;62.622;17.912;2022-12-07T09:39:13;100285.08;;;-5.80;54.44
44351;BME280;62766;62.622;17.912;2022-12-07T09:41:43;100287.61;;;-5.69;54.26
44351;BME280;62766;62.622;17.912;2022-12-07T09:44:14;100287.11;;;-5.75;54.03
44351;BME280;62766;62.622;17.912;2022-12-07T09:46:46;100289.28;;;-5.66;53.79
44351;BME280;62766;62.622;17.912;2022-12-07T09:49:18;100289.10;;;-5.64;53.69
44351;BME280;62766;62.622;17.912;2022-12-07T09:51:47;100286.28;;;-5.61;53.52
44351;BME280;62766;62.622;17.912;2022-12-07T09:54:26;100285.29;;;-5.67;53.97
44351;BME280;62766;62.622;17.912;2022-12-07T09:56:54;100284.90;;;-5.59;53.91
44351;BME280;62766;62.622;17.912;2022-12-07T09:59:23;100285.33;;;-5.46;53.63
44351;BME280;62766;62.622;17.912;2022-12-07T10:01:51;100285.24;;;-5.50;53.59
44351;BME280;62766;62.622;17.912;2022-12-07T10:04:22;100283.62;;;-5.40;53.44
44351;BME280;62766;62.622;17.912;2022-12-07T10:06:52;100289.01;;;-5.41;53.17
44351;BME280;62766;62.622;17.912;2022-12-07T10:09:22;100287.69;;;-5.31;52.92
44351;BME280;62766;62.622;17.912;2022-12-07T10:12:07;100286.50;;;-5.42;52.86
44351;BME280;62766;62.622;17.912;2022-12-07T10:14:37;100289.56;;;-5.29;52.66
44351;BME280;62766;62.622;17.912;2022-12-07T10:17:29;100288.30;;;-5.38;52.48
44351;BME280;62766;62.622;17.912;2022-12-07T10:20:20;100286.79;;;-5.31;52.70
44351;BME280;62766;62.622;17.912;2022-12-07T10:23:00;100288.79;;;-5.37;52.40
44351;BME280;62766;62.622;17.912;2022-12-07T10:25:32;100287.68;;;-5.39;52.23
44351;BME280;62766;62.622;17.912;2022-12-07T10:28:03;100281.85;;;-5.39;52.27
44351;BME280;62766;62.622;17.912;2022-12-07T10:30:47;100277.40;;;-5.36;52.00
44351;BME280;62766;62.622;17.912;2022-12-07T10:33:34;100272.55;;;-5.40;52.00
44351;BME280;62766;62.622;17.912;2022-12-07T10:36:23;100273.11;;;-5.35;51.94
44351;BME280;62766;62.622;17.912;2022-12-07T10:38:53;100274.11;;;-5.32;52.03
44351;BME280;62766;62.622;17.912;2022-12-07T10:41:27;100273.37;;;-5.38;52.16
44351;BME280;62766;62.622;17.912;2022-12-07T10:43:57;100270.18;;;-5.51;52.21
44351;BME280;62766;62.622;17.912;2022-12-07T10:47:07;100263.06;;;-5.41;52.07
44351;BME280;62766;62.622;17.912;2022-12-07T10:49:51;100265.26;;;-5.56;52.06
44351;BME280;62766;62.622;17.912;2022-12-07T10:52:37;100266.00;;;-5.55;52.19
44351;BME280;62766;62.622;17.912;2022-12-07T10:55:16;100258.23;;;-5.46;52.38
44351;BME280;62766;62.622;17.912;2022-12-07T10:57:59;100253.93;;;-5.51;52.32
44351;BME280;62766;62.622;17.912;2022-12-07T11:03:44;100263.67;;;-5.60;52.57
44351;BME280;62766;62.622;17.912;2022-12-07T11:06:26;100262.69;;;-5.51;52.86
44351;BME280;62766;62.622;17.912;2022-12-07T11:09:06;100265.97;;;-5.52;52.79
44351;BME280;62766;62.622;17.912;2022-12-07T11:11:51;100266.09;;;-5.49;52.60
44351;BME280;62766;62.622;17.912;2022-12-07T11:14:26;100260.75;;;-5.41;52.49
44351;BME280;62766;62.622;17.912;2022-12-07T11:17:01;100252.01;;;-5.45;52.42
44351;BME280;62766;62.622;17.912;2022-12-07T11:19:43;100256.33;;;-5.30;52.21
44351;BME280;62766;62.622;17.912;2022-12-07T11:22:19;100254.36;;;-5.47;52.57
44351;BME280;62766;62.622;17.912;2022-12-07T11:24:57;100257.14;;;-5.47;52.72
44351;BME280;62766;62.622;17.912;2022-12-07T11:27:35;100258.42;;;-5.48;52.80
44351;BME280;62766;62.622;17.912;2022-12-07T11:30:13;100254.53;;;-5.43;52.83
44351;BME280;62766;62.622;17.912;2022-12-07T11:32:54;100258.42;;;-5.48;52.33
44351;BME280;62766;62.622;17.912;2022-12-07T11:35:35;100258.61;;;-5.49;52.34
44351;BME280;62766;62.622;17.912;2022-12-07T11:38:11;100259.67;;;-5.54;52.33
44351;BME280;62766;62.622;17.912;2022-12-07T11:40:46;100252.12;;;-5.72;52.57
44351;BME280;62766;62.622;17.912;2022-12-07T11:43:20;100249.12;;;-5.75;52.42
44351;BME280;62766;62.622;17.912;2022-12-07T11:45:57;100249.81;;;-5.84;52.66
44351;BME280;62766;62.622;17.912;2022-12-07T11:48:33;100246.48;;;-5.94;52.67
44351;BME280;62766;62.622;17.912;2022-12-07T11:51:07;100245.93;;;-6.12;52.86
44351;BME280;62766;62.622;17.912;2022-12-07T11:53:41;100245.83;;;-6.11;53.06
44351;BME280;62766;62.622;17.912;2022-12-07T11:56:14;100245.83;;;-6.21;53.13
44351;BME280;62766;62.622;17.912;2022-12-07T11:58:49;100245.35;;;-6.20;52.99
44351;BME280;62766;62.622;17.912;2022-12-07T12:01:28;100246.49;;;-6.04;53.30
44351;BME280;62766;62.622;17.912;2022-12-07T12:04:07;100248.62;;;-5.99;53.55
44351;BME280;62766;62.622;17.912;2022-12-07T12:06:44;100247.92;;;-5.95;53.72
44351;BME280;62766;62.622;17.912;2022-12-07T12:09:15;100245.90;;;-5.93;53.51
44351;BME280;62766;62.622;17.912;2022-12-07T12:12:02;100236.13;;;-5.85;53.61
44351;BME280;62766;62.622;17.912;2022-12-07T12:14:46;100230.65;;;-5.95;53.86
44351;BME280;62766;62.622;17.912;2022-12-07T12:18:33;100225.66;;;-5.99;54.48
44351;BME280;62766;62.622;17.912;2022-12-07T12:21:09;100217.63;;;-5.95;54.33
44351;BME280;62766;62.622;17.912;2022-12-07T12:23:42;100213.94;;;-6.13;54.37
44351;BME280;62766;62.622;17.912;2022-12-07T12:26:17;100209.22;;;-6.15;54.44
44351;BME280;62766;62.622;17.912;2022-12-07T12:28:54;100207.75;;;-6.24;54.13
44351;BME280;62766;62.622;17.912;2022-12-07T12:31:36;100204.83;;;-6.19;54.73
44351;BME280;62766;62.622;17.912;2022-12-07T12:34:30;100204.88;;;-6.35;55.12
44351;BME280;62766;62.622;17.912;2022-12-07T12:37:00;100200.84;;;-6.33;55.23
44351;BME280;62766;62.622;17.912;2022-12-07T12:39:28;100198.09;;;-6.30;55.06
44351;BME280;62766;62.622;17.912;2022-12-07T12:41:59;100196.25;;;-6.23;54.63
44351;BME280;62766;62.622;17.912;2022-12-07T12:47:54;100204.50;;;-6.21;54.58
44351;BME280;62766;62.622;17.912;2022-12-07T12:50:26;100200.96;;;-6.10;54.30
44351;BME280;62766;62.622;17.912;2022-12-07T12:53:02;100202.65;;;-6.18;54.57
44351;BME280;62766;62.622;17.912;2022-12-07T12:56:22;100206.45;;;-6.26;54.76
44351;BME280;62766;62.622;17.912;2022-12-07T12:59:23;100208.36;;;-6.30;55.26
44351;BME280;62766;62.622;17.912;2022-12-07T13:01:55;100207.94;;;-6.30;55.43
44351;BME280;62766;62.622;17.912;2022-12-07T13:04:36;100206.19;;;-6.48;55.72
44351;BME280;62766;62.622;17.912;2022-12-07T13:07:51;100207.94;;;-6.55;56.26
44351;BME280;62766;62.622;17.912;2022-12-07T13:10:34;100208.02;;;-6.57;56.15
44351;BME280;62766;62.622;17.912;2022-12-07T13:13:39;100208.20;;;-6.50;55.55
44351;BME280;62766;62.622;17.912;2022-12-07T13:16:41;100205.19;;;-6.49;55.82
44351;BME280;62766;62.622;17.912;2022-12-07T13:19:54;100199.19;;;-6.61;55.60